sensor_id;sensor_type;location;lat;lon;timestamp;P1;durP1;ratioP1;P2;durP2;ratioP2
52456;SDS011;38369;52.840;7.082;2022-08-11T00:00:36;5.03;;;4.05;;
52456;SDS011;38369;52.840;7.082;2022-08-11T00:03:05;6.03;;;4.60;;
52456;SDS011;38369;52.840;7.082;2022-08-11T00:05:32;5.50;;;4.05;;
52456;SDS011;38369;52.840;7.082;2022-08-11T00:07:59;6.60;;;4.20;;
52456;SDS011;38369;52.840;7.082;2022-08-11T00:10:26;6.43;;;3.85;;
52456;SDS011;38369;52.840;7.082;2022-08-11T00:12:54;6.30;;;4.32;;
52456;SDS011;38369;52.840;7.082;2022-08-11T00:15:25;6.90;;;5.32;;
52456;SDS011;38369;52.840;7.082;2022-08-11T00:17:55;8.80;;;5.05;;
52456;SDS011;38369;52.840;7.082;2022-08-11T00:20:24;7.57;;;4.82;;
52456;SDS011;38369;52.840;7.082;2022-08-11T00:22:58;6.50;;;5.75;;
52456;SDS011;38369;52.840;7.082;2022-08-11T00:25:26;7.25;;;5.13;;
52456;SDS011;38369;52.840;7.082;2022-08-11T00:27:52;7.55;;;5.90;;
52456;SDS011;38369;52.840;7.082;2022-08-11T00:30:18;7.85;;;5.50;;
52456;SDS011;38369;52.840;7.082;2022-08-11T00:32:54;6.63;;;5.90;;
52456;SDS011;38369;52.840;7.082;2022-08-11T00:35:25;8.82;;;5.40;;
52456;SDS011;38369;52.840;7.082;2022-08-11T00:37:52;7.00;;;5.78;;
52456;SDS011;38369;52.840;7.082;2022-08-11T00:40:24;8.40;;;5.65;;
52456;SDS011;38369;52.840;7.082;2022-08-11T00:43:14;6.32;;;5.15;;
52456;SDS011;38369;52.840;7.082;2022-08-11T00:45:43;8.43;;;4.90;;
52456;SDS011;38369;52.840;7.082;2022-08-11T00:53:48;9.60;;;6.38;;
52456;SDS011;38369;52.840;7.082;2022-08-11T01:01:33;6.32;;;5.07;;
52456;SDS011;38369;52.840;7.082;2022-08-11T01:04:15;5.70;;;4.43;;
52456;SDS011;38369;52.840;7.082;2022-08-11T01:09:41;6.45;;;5.13;;
52456;SDS011;38369;52.840;7.082;2022-08-11T01:12:18;7.22;;;5.45;;
52456;SDS011;38369;52.840;7.082;2022-08-11T01:14:51;7.20;;;5.65;;
52456;SDS011;38369;52.840;7.082;2022-08-11T01:44:33;8.75;;;5.97;;
52456;SDS011;38369;52.840;7.082;2022-08-11T01:47:07;7.35;;;5.90;;
52456;SDS011;38369;52.840;7.082;2022-08-11T01:50:03;7.20;;;5.20;;
52456;SDS011;38369;52.840;7.082;2022-08-11T01:52:33;6.82;;;5.20;;
52456;SDS011;38369;52.840;7.082;2022-08-11T02:00:35;6.05;;;5.22;;
52456;SDS011;38369;52.840;7.082;2022-08-11T02:13:58;7.55;;;6.30;;
52456;SDS011;38369;52.840;7.082;2022-08-11T02:25:17;7.45;;;5.78;;
52456;SDS011;38369;52.840;7.082;2022-08-11T02:30:35;8.10;;;6.03;;
52456;SDS011;38369;52.840;7.082;2022-08-11T02:33:11;7.63;;;6.70;;
52456;SDS011;38369;52.840;7.082;2022-08-11T02:36:05;7.27;;;6.33;;
52456;SDS011;38369;52.840;7.082;2022-08-11T02:38:36;8.63;;;6.95;;
52456;SDS011;38369;52.840;7.082;2022-08-11T02:41:09;6.35;;;5.30;;
52456;SDS011;38369;52.840;7.082;2022-08-11T02:44:09;5.47;;;4.87;;
52456;SDS011;38369;52.840;7.082;2022-08-11T02:50:25;3.50;;;2.95;;
52456;SDS011;38369;52.840;7.082;2022-08-11T02:54:55;4.57;;;3.40;;
52456;SDS011;38369;52.840;7.082;2022-08-11T02:57:36;3.53;;;3.00;;
52456;SDS011;38369;52.840;7.082;2022-08-11T03:00:06;7.88;;;3.95;;
52456;SDS011;38369;52.840;7.082;2022-08-11T03:05:25;5.60;;;4.90;;
52456;SDS011;38369;52.840;7.082;2022-08-11T03:10:24;3.75;;;3.30;;
52456;SDS011;38369;52.840;7.082;2022-08-11T03:12:56;4.97;;;4.35;;
52456;SDS011;38369;52.840;7.082;2022-08-11T03:18:53;6.88;;;5.80;;
52456;SDS011;38369;52.840;7.082;2022-08-11T03:24:26;6.88;;;6.18;;
52456;SDS011;38369;52.840;7.082;2022-08-11T03:34:26;8.18;;;7.38;;
52456;SDS011;38369;52.840;7.082;2022-08-11T03:39:59;7.70;;;6.90;;
52456;SDS011;38369;52.840;7.082;2022-08-11T03:42:35;6.63;;;6.03;;
52456;SDS011;38369;52.840;7.082;2022-08-11T03:47:43;4.55;;;4.15;;
52456;SDS011;38369;52.840;7.082;2022-08-11T03:53:04;7.57;;;5.07;;
52456;SDS011;38369;52.840;7.082;2022-08-11T04:00:50;7.15;;;6.45;;
52456;SDS011;38369;52.840;7.082;2022-08-11T04:06:24;9.50;;;8.50;;
52456;SDS011;38369;52.840;7.082;2022-08-11T04:23:01;6.35;;;5.75;;
52456;SDS011;38369;52.840;7.082;2022-08-11T04:28:33;6.55;;;5.63;;
52456;SDS011;38369;52.840;7.082;2022-08-11T04:36:12;6.00;;;5.40;;
52456;SDS011;38369;52.840;7.082;2022-08-11T04:46:48;6.85;;;6.15;;
52456;SDS011;38369;52.840;7.082;2022-08-11T04:52:26;7.85;;;6.68;;
52456;SDS011;38369;52.840;7.082;2022-08-11T04:58:17;10.98;;;7.88;;
52456;SDS011;38369;52.840;7.082;2022-08-11T05:07:28;15.25;;;10.73;;
52456;SDS011;38369;52.840;7.082;2022-08-11T05:12:43;15.25;;;10.85;;
52456;SDS011;38369;52.840;7.082;2022-08-11T05:15:11;16.83;;;10.97;;
52456;SDS011;38369;52.840;7.082;2022-08-11T05:17:59;14.07;;;10.82;;
52456;SDS011;38369;52.840;7.082;2022-08-11T05:20:48;19.98;;;12.48;;
52456;SDS011;38369;52.840;7.082;2022-08-11T05:23:48;13.45;;;10.75;;
52456;SDS011;38369;52.840;7.082;2022-08-11T05:26:41;13.43;;;10.15;;
52456;SDS011;38369;52.840;7.082;2022-08-11T05:29:38;16.25;;;11.25;;
52456;SDS011;38369;52.840;7.082;2022-08-11T05:32:23;14.63;;;11.43;;
52456;SDS011;38369;52.840;7.082;2022-08-11T05:35:10;15.55;;;11.40;;
52456;SDS011;38369;52.840;7.082;2022-08-11T05:37:39;14.40;;;11.88;;
52456;SDS011;38369;52.840;7.082;2022-08-11T05:40:12;12.52;;;10.63;;
52456;SDS011;38369;52.840;7.082;2022-08-11T05:43:01;14.25;;;10.68;;
52456;SDS011;38369;52.840;7.082;2022-08-11T05:46:00;16.40;;;10.48;;
52456;SDS011;38369;52.840;7.082;2022-08-11T05:48:45;14.35;;;9.75;;
52456;SDS011;38369;52.840;7.082;2022-08-11T05:51:34;12.75;;;11.30;;
52456;SDS011;38369;52.840;7.082;2022-08-11T05:54:19;14.00;;;10.07;;
52456;SDS011;38369;52.840;7.082;2022-08-11T05:57:04;15.02;;;11.73;;
52456;SDS011;38369;52.840;7.082;2022-08-11T05:59:31;14.07;;;11.30;;
52456;SDS011;38369;52.840;7.082;2022-08-11T06:02:04;13.85;;;11.20;;
52456;SDS011;38369;52.840;7.082;2022-08-11T06:04:31;13.02;;;10.30;;
52456;SDS011;38369;52.840;7.082;2022-08-11T06:07:05;18.23;;;10.25;;
52456;SDS011;38369;52.840;7.082;2022-08-11T06:12:01;14.73;;;10.43;;
52456;SDS011;38369;52.840;7.082;2022-08-11T06:14:28;16.25;;;11.00;;
52456;SDS011;38369;52.840;7.082;2022-08-11T06:16:55;13.27;;;10.27;;
52456;SDS011;38369;52.840;7.082;2022-08-11T06:19:28;15.88;;;9.63;;
52456;SDS011;38369;52.840;7.082;2022-08-11T06:21:55;10.07;;;8.93;;
52456;SDS011;38369;52.840;7.082;2022-08-11T06:24:21;13.15;;;8.98;;
52456;SDS011;38369;52.840;7.082;2022-08-11T06:26:49;13.48;;;9.20;;
52456;SDS011;38369;52.840;7.082;2022-08-11T06:29:15;12.52;;;9.48;;
52456;SDS011;38369;52.840;7.082;2022-08-11T06:32:03;16.52;;;9.93;;
52456;SDS011;38369;52.840;7.082;2022-08-11T06:34:34;9.95;;;8.43;;
52456;SDS011;38369;52.840;7.082;2022-08-11T06:39:42;8.40;;;7.38;;
52456;SDS011;38369;52.840;7.082;2022-08-11T06:42:12;9.73;;;8.13;;
52456;SDS011;38369;52.840;7.082;2022-08-11T06:44:39;13.68;;;7.85;;
52456;SDS011;38369;52.840;7.082;2022-08-11T06:47:07;11.20;;;8.07;;
52456;SDS011;38369;52.840;7.082;2022-08-11T06:49:35;9.75;;;7.75;;
52456;SDS011;38369;52.840;7.082;2022-08-11T06:52:27;10.40;;;7.28;;
52456;SDS011;38369;52.840;7.082;2022-08-11T06:54:54;9.38;;;7.20;;
52456;SDS011;38369;52.840;7.082;2022-08-11T06:57:31;7.93;;;6.68;;
52456;SDS011;38369;52.840;7.082;2022-08-11T07:00:17;11.82;;;7.18;;
52456;SDS011;38369;52.840;7.082;2022-08-11T07:03:05;9.75;;;7.68;;
52456;SDS011;38369;52.840;7.082;2022-08-11T07:08:14;9.45;;;7.57;;
52456;SDS011;38369;52.840;7.082;2022-08-11T07:14:01;8.55;;;5.70;;
52456;SDS011;38369;52.840;7.082;2022-08-11T07:16:46;9.32;;;6.80;;
52456;SDS011;38369;52.840;7.082;2022-08-11T07:19:14;11.60;;;5.65;;
52456;SDS011;38369;52.840;7.082;2022-08-11T07:22:01;7.25;;;4.72;;
52456;SDS011;38369;52.840;7.082;2022-08-11T07:24:48;5.97;;;4.35;;
52456;SDS011;38369;52.840;7.082;2022-08-11T07:27:41;7.32;;;4.32;;
52456;SDS011;38369;52.840;7.082;2022-08-11T07:30:26;7.55;;;3.72;;
52456;SDS011;38369;52.840;7.082;2022-08-11T07:32:54;5.40;;;3.65;;
52456;SDS011;38369;52.840;7.082;2022-08-11T07:35:31;8.07;;;3.28;;
52456;SDS011;38369;52.840;7.082;2022-08-11T07:37:58;4.65;;;3.67;;
52456;SDS011;38369;52.840;7.082;2022-08-11T07:40:24;4.03;;;2.60;;
52456;SDS011;38369;52.840;7.082;2022-08-11T07:42:51;4.55;;;2.80;;
52456;SDS011;38369;52.840;7.082;2022-08-11T07:45:17;7.20;;;2.70;;
52456;SDS011;38369;52.840;7.082;2022-08-11T07:48:03;3.45;;;2.50;;
52456;SDS011;38369;52.840;7.082;2022-08-11T07:50:47;2.90;;;2.03;;
52456;SDS011;38369;52.840;7.082;2022-08-11T07:53:33;6.05;;;1.90;;
52456;SDS011;38369;52.840;7.082;2022-08-11T07:56:02;3.58;;;2.22;;
52456;SDS011;38369;52.840;7.082;2022-08-11T07:58:33;6.53;;;2.63;;
52456;SDS011;38369;52.840;7.082;2022-08-11T08:01:20;3.95;;;2.03;;
52456;SDS011;38369;52.840;7.082;2022-08-11T08:04:05;5.55;;;1.73;;
52456;SDS011;38369;52.840;7.082;2022-08-11T08:06:51;4.38;;;2.15;;
52456;SDS011;38369;52.840;7.082;2022-08-11T08:09:36;4.68;;;1.88;;
52456;SDS011;38369;52.840;7.082;2022-08-11T08:12:22;3.65;;;2.00;;
52456;SDS011;38369;52.840;7.082;2022-08-11T08:15:11;4.68;;;1.90;;
52456;SDS011;38369;52.840;7.082;2022-08-11T08:17:58;6.13;;;1.88;;
52456;SDS011;38369;52.840;7.082;2022-08-11T08:20:34;4.93;;;2.10;;
52456;SDS011;38369;52.840;7.082;2022-08-11T08:23:02;2.97;;;1.67;;
52456;SDS011;38369;52.840;7.082;2022-08-11T08:25:33;3.35;;;1.85;;
52456;SDS011;38369;52.840;7.082;2022-08-11T08:28:00;3.38;;;1.70;;
52456;SDS011;38369;52.840;7.082;2022-08-11T08:30:28;3.22;;;1.77;;
52456;SDS011;38369;52.840;7.082;2022-08-11T08:33:19;4.65;;;1.90;;
52456;SDS011;38369;52.840;7.082;2022-08-11T08:35:46;6.55;;;1.88;;
52456;SDS011;38369;52.840;7.082;2022-08-11T08:38:13;4.50;;;1.92;;
52456;SDS011;38369;52.840;7.082;2022-08-11T08:40:39;5.32;;;1.80;;
52456;SDS011;38369;52.840;7.082;2022-08-11T08:43:10;7.03;;;1.73;;
52456;SDS011;38369;52.840;7.082;2022-08-11T08:45:39;4.72;;;1.50;;
52456;SDS011;38369;52.840;7.082;2022-08-11T08:48:11;3.60;;;1.70;;
52456;SDS011;38369;52.840;7.082;2022-08-11T08:50:42;3.58;;;1.33;;
52456;SDS011;38369;52.840;7.082;2022-08-11T08:53:28;2.70;;;1.63;;
52456;SDS011;38369;52.840;7.082;2022-08-11T08:56:00;2.17;;;1.27;;
52456;SDS011;38369;52.840;7.082;2022-08-11T08:58:26;3.97;;;1.50;;
52456;SDS011;38369;52.840;7.082;2022-08-11T09:00:54;3.65;;;1.73;;
52456;SDS011;38369;52.840;7.082;2022-08-11T09:03:21;3.35;;;1.77;;
52456;SDS011;38369;52.840;7.082;2022-08-11T09:05:48;5.28;;;1.45;;
52456;SDS011;38369;52.840;7.082;2022-08-11T09:08:18;3.85;;;1.50;;
52456;SDS011;38369;52.840;7.082;2022-08-11T09:10:46;2.58;;;1.50;;
52456;SDS011;38369;52.840;7.082;2022-08-11T09:13:36;9.18;;;1.52;;
52456;SDS011;38369;52.840;7.082;2022-08-11T09:16:05;1.73;;;1.23;;
52456;SDS011;38369;52.840;7.082;2022-08-11T09:18:31;3.30;;;1.33;;
52456;SDS011;38369;52.840;7.082;2022-08-11T09:20:58;3.38;;;1.25;;
52456;SDS011;38369;52.840;7.082;2022-08-11T09:23:24;2.88;;;1.67;;
52456;SDS011;38369;52.840;7.082;2022-08-11T09:26:09;7.22;;;1.17;;
52456;SDS011;38369;52.840;7.082;2022-08-11T09:28:55;4.57;;;1.73;;
52456;SDS011;38369;52.840;7.082;2022-08-11T09:31:22;2.50;;;1.17;;
52456;SDS011;38369;52.840;7.082;2022-08-11T09:33:50;4.93;;;1.48;;
52456;SDS011;38369;52.840;7.082;2022-08-11T09:36:16;4.82;;;1.70;;
52456;SDS011;38369;52.840;7.082;2022-08-11T09:39:02;3.30;;;1.33;;
52456;SDS011;38369;52.840;7.082;2022-08-11T09:41:48;2.88;;;1.38;;
52456;SDS011;38369;52.840;7.082;2022-08-11T09:44:14;1.83;;;1.13;;
52456;SDS011;38369;52.840;7.082;2022-08-11T09:47:00;3.60;;;1.42;;
52456;SDS011;38369;52.840;7.082;2022-08-11T09:49:26;2.75;;;1.90;;
52456;SDS011;38369;52.840;7.082;2022-08-11T09:51:53;4.55;;;1.40;;
52456;SDS011;38369;52.840;7.082;2022-08-11T09:54:20;3.20;;;1.92;;
52456;SDS011;38369;52.840;7.082;2022-08-11T09:56:50;4.70;;;1.90;;
52456;SDS011;38369;52.840;7.082;2022-08-11T09:59:35;5.25;;;1.58;;
52456;SDS011;38369;52.840;7.082;2022-08-11T10:02:02;1.55;;;1.27;;
52456;SDS011;38369;52.840;7.082;2022-08-11T10:04:41;2.75;;;1.40;;
52456;SDS011;38369;52.840;7.082;2022-08-11T10:07:13;2.10;;;1.10;;
52456;SDS011;38369;52.840;7.082;2022-08-11T10:09:55;2.95;;;1.25;;
52456;SDS011;38369;52.840;7.082;2022-08-11T10:12:22;3.60;;;1.30;;
52456;SDS011;38369;52.840;7.082;2022-08-11T10:14:52;2.95;;;1.17;;
52456;SDS011;38369;52.840;7.082;2022-08-11T10:17:38;3.63;;;1.30;;
52456;SDS011;38369;52.840;7.082;2022-08-11T10:20:26;5.60;;;1.42;;
52456;SDS011;38369;52.840;7.082;2022-08-11T10:22:53;3.75;;;1.20;;
52456;SDS011;38369;52.840;7.082;2022-08-11T10:25:38;4.72;;;1.38;;
52456;SDS011;38369;52.840;7.082;2022-08-11T10:28:23;4.18;;;1.63;;
52456;SDS011;38369;52.840;7.082;2022-08-11T10:30:49;3.00;;;1.13;;
52456;SDS011;38369;52.840;7.082;2022-08-11T10:33:34;5.72;;;1.52;;
52456;SDS011;38369;52.840;7.082;2022-08-11T10:36:20;2.25;;;1.40;;
52456;SDS011;38369;52.840;7.082;2022-08-11T10:38:46;4.90;;;1.88;;
52456;SDS011;38369;52.840;7.082;2022-08-11T10:41:16;2.20;;;1.00;;
52456;SDS011;38369;52.840;7.082;2022-08-11T10:44:02;4.50;;;1.20;;
52456;SDS011;38369;52.840;7.082;2022-08-11T10:46:29;2.50;;;1.40;;
52456;SDS011;38369;52.840;7.082;2022-08-11T10:49:14;3.92;;;1.30;;
52456;SDS011;38369;52.840;7.082;2022-08-11T10:51:41;2.75;;;1.20;;
52456;SDS011;38369;52.840;7.082;2022-08-11T10:54:25;3.78;;;1.45;;
52456;SDS011;38369;52.840;7.082;2022-08-11T10:57:10;3.92;;;1.75;;
52456;SDS011;38369;52.840;7.082;2022-08-11T10:59:57;3.70;;;1.30;;
52456;SDS011;38369;52.840;7.082;2022-08-11T11:02:23;4.55;;;1.45;;
52456;SDS011;38369;52.840;7.082;2022-08-11T11:04:56;2.85;;;1.05;;
52456;SDS011;38369;52.840;7.082;2022-08-11T11:07:28;3.67;;;1.40;;
52456;SDS011;38369;52.840;7.082;2022-08-11T11:10:03;2.67;;;1.17;;
52456;SDS011;38369;52.840;7.082;2022-08-11T11:15:15;3.03;;;1.30;;
52456;SDS011;38369;52.840;7.082;2022-08-11T11:18:08;3.30;;;1.70;;
52456;SDS011;38369;52.840;7.082;2022-08-11T11:23:13;3.40;;;1.30;;
52456;SDS011;38369;52.840;7.082;2022-08-11T11:28:37;10.70;;;1.58;;
52456;SDS011;38369;52.840;7.082;2022-08-11T11:36:47;2.30;;;1.42;;
52456;SDS011;38369;52.840;7.082;2022-08-11T11:39:19;2.63;;;0.93;;
52456;SDS011;38369;52.840;7.082;2022-08-11T11:41:46;3.15;;;1.13;;
52456;SDS011;38369;52.840;7.082;2022-08-11T11:44:13;2.38;;;1.00;;
52456;SDS011;38369;52.840;7.082;2022-08-11T11:46:40;3.45;;;0.98;;
52456;SDS011;38369;52.840;7.082;2022-08-11T11:51:35;3.13;;;1.27;;
52456;SDS011;38369;52.840;7.082;2022-08-11T11:54:01;3.22;;;1.15;;
52456;SDS011;38369;52.840;7.082;2022-08-11T11:56:29;2.13;;;1.10;;
52456;SDS011;38369;52.840;7.082;2022-08-11T11:58:56;1.40;;;0.93;;
52456;SDS011;38369;52.840;7.082;2022-08-11T12:01:41;3.03;;;1.30;;
52456;SDS011;38369;52.840;7.082;2022-08-11T12:04:07;1.55;;;0.90;;
52456;SDS011;38369;52.840;7.082;2022-08-11T12:06:34;4.40;;;1.33;;
52456;SDS011;38369;52.840;7.082;2022-08-11T12:09:01;2.42;;;1.00;;
52456;SDS011;38369;52.840;7.082;2022-08-11T12:11:27;3.25;;;1.10;;
52456;SDS011;38369;52.840;7.082;2022-08-11T12:14:14;4.07;;;1.10;;
52456;SDS011;38369;52.840;7.082;2022-08-11T12:16:42;3.15;;;1.05;;
52456;SDS011;38369;52.840;7.082;2022-08-11T12:19:27;2.03;;;1.00;;
52456;SDS011;38369;52.840;7.082;2022-08-11T12:21:54;2.72;;;1.00;;
52456;SDS011;38369;52.840;7.082;2022-08-11T12:24:39;1.50;;;0.85;;
52456;SDS011;38369;52.840;7.082;2022-08-11T12:27:25;2.88;;;1.10;;
52456;SDS011;38369;52.840;7.082;2022-08-11T12:29:53;9.35;;;1.10;;
52456;SDS011;38369;52.840;7.082;2022-08-11T12:32:20;4.13;;;1.00;;
52456;SDS011;38369;52.840;7.082;2022-08-11T12:34:47;4.57;;;1.05;;
52456;SDS011;38369;52.840;7.082;2022-08-11T12:37:13;2.83;;;1.10;;
52456;SDS011;38369;52.840;7.082;2022-08-11T12:39:50;3.00;;;0.93;;
52456;SDS011;38369;52.840;7.082;2022-08-11T12:42:36;1.13;;;0.73;;
52456;SDS011;38369;52.840;7.082;2022-08-11T12:45:25;4.22;;;1.10;;
52456;SDS011;38369;52.840;7.082;2022-08-11T12:47:53;2.25;;;0.88;;
52456;SDS011;38369;52.840;7.082;2022-08-11T12:50:39;5.63;;;0.93;;
52456;SDS011;38369;52.840;7.082;2022-08-11T12:53:25;2.85;;;1.48;;
52456;SDS011;38369;52.840;7.082;2022-08-11T12:55:52;3.95;;;1.05;;
52456;SDS011;38369;52.840;7.082;2022-08-11T12:58:39;3.22;;;0.98;;
52456;SDS011;38369;52.840;7.082;2022-08-11T13:01:06;1.63;;;0.80;;
52456;SDS011;38369;52.840;7.082;2022-08-11T13:03:51;1.25;;;0.90;;
52456;SDS011;38369;52.840;7.082;2022-08-11T13:06:36;4.18;;;0.90;;
52456;SDS011;38369;52.840;7.082;2022-08-11T13:09:02;3.15;;;1.10;;
52456;SDS011;38369;52.840;7.082;2022-08-11T13:11:29;2.38;;;1.00;;
52456;SDS011;38369;52.840;7.082;2022-08-11T13:14:14;6.45;;;0.95;;
52456;SDS011;38369;52.840;7.082;2022-08-11T13:16:41;2.78;;;1.05;;
52456;SDS011;38369;52.840;7.082;2022-08-11T13:19:26;3.78;;;1.58;;
52456;SDS011;38369;52.840;7.082;2022-08-11T13:21:52;2.70;;;0.93;;
52456;SDS011;38369;52.840;7.082;2022-08-11T13:24:19;2.45;;;0.73;;
52456;SDS011;38369;52.840;7.082;2022-08-11T13:26:46;5.88;;;1.33;;
52456;SDS011;38369;52.840;7.082;2022-08-11T13:29:18;2.15;;;1.00;;
52456;SDS011;38369;52.840;7.082;2022-08-11T13:31:44;3.75;;;1.00;;
52456;SDS011;38369;52.840;7.082;2022-08-11T13:34:10;3.08;;;0.90;;
52456;SDS011;38369;52.840;7.082;2022-08-11T13:36:37;1.75;;;0.90;;
52456;SDS011;38369;52.840;7.082;2022-08-11T13:39:03;4.72;;;1.00;;
52456;SDS011;38369;52.840;7.082;2022-08-11T13:41:30;2.22;;;1.00;;
52456;SDS011;38369;52.840;7.082;2022-08-11T13:44:03;3.65;;;1.10;;
52456;SDS011;38369;52.840;7.082;2022-08-11T13:46:30;4.50;;;1.25;;
52456;SDS011;38369;52.840;7.082;2022-08-11T13:48:57;3.15;;;0.85;;
52456;SDS011;38369;52.840;7.082;2022-08-11T13:51:24;2.42;;;0.90;;
52456;SDS011;38369;52.840;7.082;2022-08-11T13:54:06;4.13;;;0.98;;
52456;SDS011;38369;52.840;7.082;2022-08-11T13:56:34;6.90;;;1.10;;
52456;SDS011;38369;52.840;7.082;2022-08-11T13:59:00;2.92;;;0.65;;
52456;SDS011;38369;52.840;7.082;2022-08-11T14:01:28;1.60;;;0.98;;
52456;SDS011;38369;52.840;7.082;2022-08-11T14:03:54;2.60;;;0.80;;
52456;SDS011;38369;52.840;7.082;2022-08-11T14:08:50;1.92;;;0.98;;
52456;SDS011;38369;52.840;7.082;2022-08-11T14:11:17;1.58;;;0.90;;
52456;SDS011;38369;52.840;7.082;2022-08-11T14:14:02;2.42;;;1.30;;
52456;SDS011;38369;52.840;7.082;2022-08-11T14:16:31;2.53;;;1.05;;
52456;SDS011;38369;52.840;7.082;2022-08-11T14:19:01;4.90;;;1.00;;
52456;SDS011;38369;52.840;7.082;2022-08-11T14:21:29;3.92;;;1.10;;
52456;SDS011;38369;52.840;7.082;2022-08-11T14:24:16;3.08;;;0.98;;
52456;SDS011;38369;52.840;7.082;2022-08-11T14:26:46;5.15;;;1.15;;
52456;SDS011;38369;52.840;7.082;2022-08-11T14:29:20;6.60;;;1.55;;
52456;SDS011;38369;52.840;7.082;2022-08-11T14:34:13;2.38;;;0.90;;
52456;SDS011;38369;52.840;7.082;2022-08-11T14:36:43;2.85;;;0.95;;
52456;SDS011;38369;52.840;7.082;2022-08-11T14:39:11;3.22;;;1.13;;
52456;SDS011;38369;52.840;7.082;2022-08-11T14:41:42;3.65;;;1.10;;
52456;SDS011;38369;52.840;7.082;2022-08-11T14:44:26;6.53;;;1.38;;
52456;SDS011;38369;52.840;7.082;2022-08-11T14:47:12;5.07;;;1.00;;
52456;SDS011;38369;52.840;7.082;2022-08-11T14:49:41;1.83;;;0.85;;
52456;SDS011;38369;52.840;7.082;2022-08-11T14:52:11;2.72;;;1.10;;
52456;SDS011;38369;52.840;7.082;2022-08-11T14:54:40;2.75;;;1.23;;
52456;SDS011;38369;52.840;7.082;2022-08-11T14:57:26;2.88;;;1.48;;
52456;SDS011;38369;52.840;7.082;2022-08-11T14:59:53;1.95;;;1.02;;
52456;SDS011;38369;52.840;7.082;2022-08-11T15:02:19;3.65;;;1.10;;
52456;SDS011;38369;52.840;7.082;2022-08-11T15:05:05;4.70;;;1.13;;
52456;SDS011;38369;52.840;7.082;2022-08-11T15:07:32;3.83;;;0.95;;
52456;SDS011;38369;52.840;7.082;2022-08-11T15:09:58;2.42;;;1.10;;
52456;SDS011;38369;52.840;7.082;2022-08-11T15:12:25;2.28;;;1.20;;
52456;SDS011;38369;52.840;7.082;2022-08-11T15:14:52;4.50;;;1.10;;
52456;SDS011;38369;52.840;7.082;2022-08-11T15:17:38;2.75;;;1.40;;
52456;SDS011;38369;52.840;7.082;2022-08-11T15:20:05;2.45;;;1.00;;
52456;SDS011;38369;52.840;7.082;2022-08-11T15:22:50;2.70;;;1.38;;
52456;SDS011;38369;52.840;7.082;2022-08-11T15:25:35;2.78;;;1.10;;
52456;SDS011;38369;52.840;7.082;2022-08-11T15:28:02;2.67;;;1.30;;
52456;SDS011;38369;52.840;7.082;2022-08-11T15:30:50;2.72;;;1.40;;
52456;SDS011;38369;52.840;7.082;2022-08-11T15:33:36;5.40;;;1.17;;
52456;SDS011;38369;52.840;7.082;2022-08-11T15:36:22;4.22;;;1.23;;
52456;SDS011;38369;52.840;7.082;2022-08-11T15:39:08;3.75;;;1.13;;
52456;SDS011;38369;52.840;7.082;2022-08-11T15:41:42;3.97;;;1.05;;
52456;SDS011;38369;52.840;7.082;2022-08-11T15:44:31;4.90;;;1.80;;
52456;SDS011;38369;52.840;7.082;2022-08-11T15:47:25;3.38;;;1.30;;
52456;SDS011;38369;52.840;7.082;2022-08-11T15:49:52;2.97;;;1.10;;
52456;SDS011;38369;52.840;7.082;2022-08-11T15:52:24;2.72;;;1.30;;
52456;SDS011;38369;52.840;7.082;2022-08-11T15:54:51;2.20;;;1.25;;
52456;SDS011;38369;52.840;7.082;2022-08-11T15:57:18;3.28;;;1.58;;
52456;SDS011;38369;52.840;7.082;2022-08-11T16:00:04;1.40;;;0.98;;
52456;SDS011;38369;52.840;7.082;2022-08-11T16:02:50;5.22;;;1.45;;
52456;SDS011;38369;52.840;7.082;2022-08-11T16:05:19;2.08;;;1.30;;
52456;SDS011;38369;52.840;7.082;2022-08-11T16:07:46;3.00;;;1.20;;
52456;SDS011;38369;52.840;7.082;2022-08-11T16:10:16;1.95;;;1.25;;
52456;SDS011;38369;52.840;7.082;2022-08-11T16:13:18;3.60;;;1.13;;
52456;SDS011;38369;52.840;7.082;2022-08-11T16:16:11;1.80;;;1.40;;
52456;SDS011;38369;52.840;7.082;2022-08-11T16:18:43;4.45;;;1.33;;
52456;SDS011;38369;52.840;7.082;2022-08-11T16:21:25;10.15;;;2.00;;
52456;SDS011;38369;52.840;7.082;2022-08-11T16:23:52;3.55;;;1.80;;
52456;SDS011;38369;52.840;7.082;2022-08-11T16:26:20;3.13;;;1.65;;
52456;SDS011;38369;52.840;7.082;2022-08-11T16:28:55;2.35;;;1.60;;
52456;SDS011;38369;52.840;7.082;2022-08-11T16:31:21;5.63;;;2.13;;
52456;SDS011;38369;52.840;7.082;2022-08-11T16:33:48;4.78;;;1.55;;
52456;SDS011;38369;52.840;7.082;2022-08-11T16:36:15;5.00;;;1.83;;
52456;SDS011;38369;52.840;7.082;2022-08-11T16:39:00;3.40;;;1.75;;
52456;SDS011;38369;52.840;7.082;2022-08-11T16:41:28;2.40;;;1.80;;
52456;SDS011;38369;52.840;7.082;2022-08-11T16:44:13;1.85;;;1.38;;
52456;SDS011;38369;52.840;7.082;2022-08-11T16:46:58;5.50;;;1.50;;
52456;SDS011;38369;52.840;7.082;2022-08-11T16:49:32;4.63;;;2.03;;
52456;SDS011;38369;52.840;7.082;2022-08-11T16:51:58;5.05;;;1.42;;
52456;SDS011;38369;52.840;7.082;2022-08-11T16:54:28;3.08;;;1.40;;
52456;SDS011;38369;52.840;7.082;2022-08-11T16:56:55;7.20;;;2.03;;
52456;SDS011;38369;52.840;7.082;2022-08-11T16:59:42;9.75;;;4.60;;
52456;SDS011;38369;52.840;7.082;2022-08-11T17:02:10;6.20;;;4.20;;
52456;SDS011;38369;52.840;7.082;2022-08-11T17:04:50;3.00;;;1.77;;
52456;SDS011;38369;52.840;7.082;2022-08-11T17:07:36;4.78;;;2.30;;
52456;SDS011;38369;52.840;7.082;2022-08-11T17:13:06;7.72;;;2.10;;
52456;SDS011;38369;52.840;7.082;2022-08-11T17:15:40;3.80;;;1.83;;
52456;SDS011;38369;52.840;7.082;2022-08-11T17:21:11;3.70;;;1.88;;
52456;SDS011;38369;52.840;7.082;2022-08-11T17:23:39;4.38;;;1.80;;
52456;SDS011;38369;52.840;7.082;2022-08-11T17:26:24;3.28;;;2.03;;
52456;SDS011;38369;52.840;7.082;2022-08-11T17:28:58;3.88;;;1.42;;
52456;SDS011;38369;52.840;7.082;2022-08-11T17:31:25;3.63;;;1.50;;
52456;SDS011;38369;52.840;7.082;2022-08-11T17:34:10;5.25;;;1.63;;
52456;SDS011;38369;52.840;7.082;2022-08-11T17:36:56;2.47;;;1.50;;
52456;SDS011;38369;52.840;7.082;2022-08-11T17:39:29;2.88;;;1.73;;
52456;SDS011;38369;52.840;7.082;2022-08-11T17:41:56;4.00;;;1.80;;
52456;SDS011;38369;52.840;7.082;2022-08-11T17:44:41;5.57;;;1.52;;
52456;SDS011;38369;52.840;7.082;2022-08-11T17:47:27;4.40;;;1.80;;
52456;SDS011;38369;52.840;7.082;2022-08-11T17:50:13;2.20;;;1.48;;
52456;SDS011;38369;52.840;7.082;2022-08-11T17:52:39;4.38;;;1.77;;
52456;SDS011;38369;52.840;7.082;2022-08-11T17:55:24;2.45;;;1.30;;
52456;SDS011;38369;52.840;7.082;2022-08-11T17:58:10;1.88;;;1.13;;
52456;SDS011;38369;52.840;7.082;2022-08-11T18:00:55;3.00;;;1.60;;
52456;SDS011;38369;52.840;7.082;2022-08-11T18:03:22;2.78;;;1.40;;
52456;SDS011;38369;52.840;7.082;2022-08-11T18:06:00;2.25;;;1.58;;
52456;SDS011;38369;52.840;7.082;2022-08-11T18:08:28;5.97;;;1.83;;
52456;SDS011;38369;52.840;7.082;2022-08-11T18:11:15;4.47;;;1.58;;
52456;SDS011;38369;52.840;7.082;2022-08-11T18:14:01;3.25;;;1.48;;
52456;SDS011;38369;52.840;7.082;2022-08-11T18:16:46;5.75;;;1.85;;
52456;SDS011;38369;52.840;7.082;2022-08-11T18:19:31;2.90;;;1.42;;
52456;SDS011;38369;52.840;7.082;2022-08-11T18:22:22;2.70;;;1.55;;
52456;SDS011;38369;52.840;7.082;2022-08-11T18:25:12;4.72;;;1.40;;
52456;SDS011;38369;52.840;7.082;2022-08-11T18:27:57;3.88;;;1.45;;
52456;SDS011;38369;52.840;7.082;2022-08-11T18:30:44;2.85;;;1.67;;
52456;SDS011;38369;52.840;7.082;2022-08-11T18:33:32;3.42;;;1.65;;
52456;SDS011;38369;52.840;7.082;2022-08-11T18:36:22;7.28;;;1.90;;
52456;SDS011;38369;52.840;7.082;2022-08-11T18:39:08;5.32;;;1.65;;
52456;SDS011;38369;52.840;7.082;2022-08-11T18:41:54;3.13;;;1.52;;
52456;SDS011;38369;52.840;7.082;2022-08-11T18:44:41;5.10;;;2.03;;
52456;SDS011;38369;52.840;7.082;2022-08-11T18:47:27;3.03;;;1.83;;